Time;durP1;ratioP1;P1;durP2;ratioP2;P2;SDS_P1;SDS_P2;PMS_P1;PMS_P2;Temp;Humidity;BMP_temperature;BMP_pressure;BME280_temperature;BME280_humidity;BME280_pressure;Samples;Min_cycle;Max_cycle;Signal;HPM_P1;HPM_P2
2021/08/03 00:00:32;;;;;;;18.85;8.57;;;;;;;21.41;68.29;98137.34;5047760;28;20049;-74
2021/08/03 00:02:58;;;;;;;20.10;7.90;;;;;;;21.54;67.52;98119.16;5036839;28;20075;-75
2021/08/03 00:05:27;;;;;;;16.13;7.97;;;;;;;21.58;67.49;98126.72;5026270;28;20558;-75
2021/08/03 00:08:00;;;;;;;15.65;7.72;;;;;;;21.50;67.67;98126.69;5055161;28;20056;-75
2021/08/03 00:10:29;;;;;;;21.33;7.97;;;;;;;21.57;67.41;98131.50;5038268;28;20049;-75
2021/08/03 00:12:55;;;;;;;16.40;7.32;;;;;;;21.66;66.98;98131.94;5028815;28;20049;-76
2021/08/03 00:15:23;;;;;;;19.42;7.45;;;;;;;21.51;67.71;98128.28;5013409;28;20103;-76
2021/08/03 00:17:54;;;;;;;16.35;7.18;;;;;;;21.45;67.47;98126.28;5047438;28;20038;-75
2021/08/03 00:20:21;;;;;;;19.08;8.20;;;;;;;21.48;67.79;98142.16;5043242;28;20049;-75
2021/08/03 00:22:48;;;;;;;18.98;7.38;;;;;;;21.51;67.47;98133.84;5014564;28;20079;-76
2021/08/03 00:25:14;;;;;;;;;;;;;;;21.41;67.62;98134.59;5026481;28;20143;-74
2021/08/03 00:27:42;;;;;;;16.33;7.20;;;;;;;21.39;67.48;98139.72;5032497;28;20028;-75
2021/08/03 00:30:09;;;;;;;15.50;7.72;;;;;;;21.20;68.25;98136.06;5044742;28;20055;-73
2021/08/03 00:32:36;;;;;;;20.20;7.25;;;;;;;21.36;67.80;98137.75;5030867;28;20525;-73
2021/08/03 00:35:03;;;;;;;13.98;6.72;;;;;;;21.28;67.62;98155.53;5004312;28;20049;-74
2021/08/03 00:37:29;;;;;;;17.48;7.10;;;;;;;21.15;68.36;98163.41;5038808;28;20527;-74
2021/08/03 00:39:57;;;;;;;17.17;7.30;;;;;;;21.09;68.44;98161.00;5041954;28;20045;-74
2021/08/03 00:42:34;;;;;;;18.80;7.57;;;;;;;21.09;68.29;98158.22;5031246;28;20512;-74
2021/08/03 00:45:03;;;;;;;14.75;6.70;;;;;;;21.23;67.97;98162.28;5044045;28;20053;-74
2021/08/03 00:47:35;;;;;;;20.52;7.75;;;;;;;21.27;67.81;98159.50;5031895;28;20052;-73
2021/08/03 00:50:09;;;;;;;33.03;7.18;;;;;;;21.25;67.80;98162.69;5020674;28;20045;-75
2021/08/03 00:52:37;;;;;;;15.80;6.57;;;;;;;21.32;67.29;98168.28;5036721;28;20049;-75
2021/08/03 00:55:04;;;;;;;15.30;6.67;;;;;;;21.35;67.37;98167.50;5028469;28;20053;-75
2021/08/03 00:57:33;;;;;;;14.57;6.43;;;;;;;21.27;67.29;98157.53;5027808;28;20539;-75
2021/08/03 01:00:03;;;;;;;13.70;6.72;;;;;;;21.37;67.28;98162.34;5023995;28;20045;-75
2021/08/03 01:02:32;;;;;;;12.55;6.50;;;;;;;21.43;66.63;98164.78;5025838;28;20416;-75
2021/08/03 01:05:00;;;;;;;16.02;5.97;;;;;;;21.38;67.02;98163.94;5023790;28;20080;-75
2021/08/03 01:07:37;;;;;;;18.15;6.38;;;;;;;21.37;66.76;98165.13;5039285;28;20666;-76
2021/08/03 01:10:14;;;;;;;16.83;6.30;;;;;;;21.25;67.17;98174.59;5020159;28;20046;-76
2021/08/03 01:12:52;;;;;;;15.95;5.95;;;;;;;21.32;67.01;98175.84;5024398;28;20160;-76
2021/08/03 01:15:23;;;;;;;16.30;5.75;;;;;;;21.33;66.54;98172.66;5028080;28;20412;-76
2021/08/03 01:18:00;;;;;;;18.65;5.50;;;;;;;21.23;66.71;98185.28;5039399;28;20068;-75
2021/08/03 01:20:29;;;;;;;13.35;5.47;;;;;;;21.19;67.02;98175.34;5037720;28;20049;-75
2021/08/03 01:23:27;;;;;;;15.27;6.20;;;;;;;21.03;67.16;98223.63;5002337;28;20402;-74
2021/08/03 01:26:02;;;;;;;14.77;5.93;;;;;;;20.83;67.23;98181.41;5035845;28;20079;-75
2021/08/03 01:28:32;;;;;;;13.15;5.43;;;;;;;21.00;67.13;98185.53;5043480;28;20044;-75
2021/08/03 01:31:02;;;;;;;21.08;5.28;;;;;;;21.00;67.04;98191.06;5036502;28;20136;-75
2021/08/03 01:33:32;;;;;;;16.30;5.07;;;;;;;20.79;67.26;98186.91;5043352;28;20045;-75
2021/08/03 01:36:05;;;;;;;16.95;5.63;;;;;;;20.93;67.24;98197.38;5037660;28;20057;-75
2021/08/03 01:38:37;;;;;;;13.85;5.18;;;;;;;21.01;66.79;98192.66;5048327;28;20048;-75
2021/08/03 01:41:07;;;;;;;16.83;5.40;;;;;;;21.05;66.49;98176.81;5046396;28;20041;-75
2021/08/03 01:43:39;;;;;;;11.55;5.28;;;;;;;21.08;66.26;98187.19;5042898;28;20049;-74
2021/08/03 01:46:06;;;;;;;13.93;5.25;;;;;;;21.18;65.99;98199.56;5045400;28;20069;-75
2021/08/03 01:48:36;;;;;;;12.00;4.72;;;;;;;21.20;66.15;98199.16;5042631;28;20049;-75
2021/08/03 01:51:06;;;;;;;11.07;4.82;;;;;;;21.25;65.87;98204.38;5047548;28;20059;-75
2021/08/03 01:53:34;;;;;;;17.88;4.72;;;;;;;21.19;65.56;98200.34;5018968;28;20483;-75
2021/08/03 01:56:02;;;;;;;19.23;5.50;;;;;;;21.23;65.55;98203.97;5039063;28;20045;-75
2021/08/03 01:58:31;;;;;;;23.02;5.65;;;;;;;21.25;65.50;98204.38;5043486;28;20133;-73
2021/08/03 02:01:09;;;;;;;17.65;4.85;;;;;;;21.28;65.05;98200.00;5043581;28;20276;-75
2021/08/03 02:03:37;;;;;;;12.05;4.93;;;;;;;21.35;64.90;98197.28;5021037;28;20199;-75
2021/08/03 02:06:15;;;;;;;12.63;4.53;;;;;;;21.29;64.90;98199.63;5044840;28;20060;-75
2021/08/03 02:08:42;;;;;;;13.48;5.18;;;;;;;21.36;64.82;98210.78;5038766;28;20071;-75
2021/08/03 02:11:14;;;;;;;14.90;5.40;;;;;;;21.33;65.00;98211.56;5044875;28;20159;-74
2021/08/03 02:13:44;;;;;;;22.70;5.40;;;;;;;21.39;64.79;98217.56;5040228;28;20075;-75
2021/08/03 02:16:18;;;;;;;14.90;4.85;;;;;;;21.40;64.80;98213.59;5012830;28;20162;-75
2021/08/03 02:18:48;;;;;;;11.50;4.60;;;;;;;21.43;64.50;98214.81;5026739;28;20063;-76
2021/08/03 02:21:22;;;;;;;15.80;4.65;;;;;;;21.44;64.06;98225.53;5026986;28;20053;-76
2021/08/03 02:23:49;;;;;;;14.90;4.75;;;;;;;21.36;64.39;98216.34;5049827;28;20053;-76
2021/08/03 02:26:17;;;;;;;17.63;6.00;;;;;;;21.30;64.56;98236.53;5036065;28;20183;-75
2021/08/03 02:28:44;;;;;;;14.70;4.82;;;;;;;21.32;64.07;98243.31;5032444;28;20056;-74
2021/08/03 02:31:14;;;;;;;17.55;5.22;;;;;;;21.34;64.55;98224.28;5034331;28;20433;-75
2021/08/03 02:33:49;;;;;;;10.48;4.57;;;;;;;21.29;64.25;98232.97;5024553;28;20052;-75
2021/08/03 02:36:20;;;;;;;10.82;4.68;;;;;;;21.30;64.29;98226.25;5027368;28;20046;-75
2021/08/03 02:38:53;;;;;;;12.32;4.18;;;;;;;21.35;63.97;98234.22;5041839;28;20124;-75
2021/08/03 02:41:23;;;;;;;12.63;4.53;;;;;;;21.36;63.91;98244.13;5041933;28;20053;-74
2021/08/03 02:43:52;;;;;;;16.48;5.40;;;;;;;21.39;63.93;98256.47;5041139;28;20127;-75
2021/08/03 02:46:23;;;;;;;13.55;5.20;;;;;;;21.38;63.45;98247.31;5039727;28;20048;-75
2021/08/03 02:49:08;;;;;;;21.00;7.15;;;;;;;21.35;63.56;98248.09;5049206;28;20459;-75
2021/08/03 02:51:37;;;;;;;18.15;6.80;;;;;;;21.37;63.45;98254.06;5041736;28;20135;-75
2021/08/03 02:54:11;;;;;;;17.65;6.57;;;;;;;21.41;63.43;98250.53;5041095;28;20231;-75
2021/08/03 02:56:39;;;;;;;14.77;6.40;;;;;;;21.43;63.26;98259.28;5059131;28;20046;-75
2021/08/03 02:59:09;;;;;;;18.35;5.65;;;;;;;21.38;63.40;98266.00;5039596;28;20524;-74
2021/08/03 03:01:40;;;;;;;14.30;5.40;;;;;;;21.40;63.03;98260.84;5037124;28;20052;-75
2021/08/03 03:04:14;;;;;;;19.48;6.57;;;;;;;21.38;63.17;98264.00;5041772;28;20057;-74
2021/08/03 03:06:46;;;;;;;21.73;7.38;;;;;;;21.37;63.25;98273.53;5058272;28;20059;-75
2021/08/03 03:09:14;;;;;;;14.82;6.55;;;;;;;21.42;63.15;98277.16;5036720;28;20042;-75
2021/08/03 03:11:42;;;;;;;20.25;8.55;;;;;;;21.42;62.82;98285.50;5023867;28;20044;-74
2021/08/03 03:14:12;;;;;;;19.77;7.72;;;;;;;21.43;62.83;98289.88;5024759;28;20068;-73
2021/08/03 03:16:41;;;;;;;20.50;5.63;;;;;;;21.42;62.26;98288.28;5039371;28;20061;-73
2021/08/03 03:19:09;;;;;;;16.45;5.00;;;;;;;21.39;62.37;98296.22;5054973;28;20143;-73
2021/08/03 03:21:37;;;;;;;15.80;4.25;;;;;;;21.35;62.40;98287.00;5049152;28;20041;-74
2021/08/03 03:24:05;;;;;;;14.75;3.90;;;;;;;21.39;62.22;98301.75;5037579;28;20152;-75
2021/08/03 03:26:35;;;;;;;12.90;4.13;;;;;;;21.41;62.18;98301.38;5028762;28;20045;-75
2021/08/03 03:29:08;;;;;;;16.45;3.65;;;;;;;21.25;62.46;98294.09;5043016;28;20132;-74
2021/08/03 03:31:35;;;;;;;12.40;3.92;;;;;;;21.35;62.40;98314.03;5036830;28;20456;-74
2021/08/03 03:34:04;;;;;;;11.40;3.60;;;;;;;21.37;62.42;98318.00;5025319;28;20491;-73
2021/08/03 03:36:34;;;;;;;11.88;3.88;;;;;;;21.35;62.53;98322.38;5042094;28;20048;-74
2021/08/03 03:39:05;;;;;;;12.38;4.43;;;;;;;21.45;62.22;98331.97;5034627;28;20045;-74
2021/08/03 03:41:35;;;;;;;13.32;4.00;;;;;;;21.37;62.37;98334.69;5047502;28;20075;-74
2021/08/03 03:44:05;;;;;;;14.35;3.90;;;;;;;21.34;62.24;98359.69;5041211;28;20090;-74
2021/08/03 03:46:40;;;;;;;13.65;3.60;;;;;;;21.29;61.96;98351.69;5035440;28;20045;-74
2021/08/03 03:49:11;;;;;;;11.23;3.15;;;;;;;21.22;62.23;98369.88;5036008;28;20509;-74
2021/08/03 03:51:41;;;;;;;11.52;3.25;;;;;;;21.15;62.55;98361.50;5038874;28;20128;-73
2021/08/03 03:54:12;;;;;;;9.10;2.97;;;;;;;21.22;62.14;98366.28;5039406;28;20076;-75
2021/08/03 03:56:41;;;;;;;11.65;4.05;;;;;;;21.04;62.80;98361.34;5039579;28;20045;-75
2021/08/03 03:59:10;;;;;;;9.20;3.20;;;;;;;21.20;62.54;98357.53;5035962;28;20033;-75
2021/08/03 04:01:38;;;;;;;8.32;3.35;;;;;;;21.26;62.05;98344.91;5043155;28;20049;-75
2021/08/03 04:04:07;;;;;;;9.90;3.42;;;;;;;21.35;62.22;98364.06;5039925;28;20072;-75
2021/08/03 04:06:34;;;;;;;10.18;3.70;;;;;;;21.26;62.36;98375.50;5036504;28;20508;-73
2021/08/03 04:09:05;;;;;;;13.82;3.50;;;;;;;21.27;62.56;98363.19;5041790;28;20378;-75
2021/08/03 04:11:33;;;;;;;11.02;3.50;;;;;;;21.27;62.47;98376.28;5041563;28;20037;-74
2021/08/03 04:14:00;;;;;;;11.98;3.63;;;;;;;21.30;62.45;98375.50;5043079;28;20057;-76
2021/08/03 04:16:28;;;;;;;13.65;3.92;;;;;;;21.34;62.40;98374.38;5045119;28;20045;-76
2021/08/03 04:18:54;;;;;;;9.40;3.50;;;;;;;21.24;62.71;98370.31;5021917;28;20045;-76
2021/08/03 04:21:20;;;;;;;10.10;3.60;;;;;;;21.23;62.65;98404.06;5045577;28;20304;-76
2021/08/03 04:23:46;;;;;;;11.68;3.75;;;;;;;21.26;62.24;98378.28;5043483;28;20051;-76
2021/08/03 04:26:15;;;;;;;13.10;3.38;;;;;;;21.38;61.78;98386.31;5052836;28;20153;-76
2021/08/03 04:28:41;;;;;;;15.15;3.33;;;;;;;21.45;61.67;98388.34;5043733;28;20044;-76
2021/08/03 04:31:07;;;;;;;9.30;3.03;;;;;;;21.39;60.60;98376.00;5027578;28;20425;-76
2021/08/03 04:33:33;;;;;;;7.95;3.10;;;;;;;21.44;60.85;98385.97;5056041;28;20152;-75
2021/08/03 04:35:59;;;;;;;10.27;3.28;;;;;;;21.33;61.17;98399.78;5043681;28;20045;-75
2021/08/03 04:38:25;;;;;;;11.52;3.22;;;;;;;20.99;62.56;98399.78;5037679;28;20136;-74
2021/08/03 04:40:51;;;;;;;9.77;2.83;;;;;;;20.83;62.30;98412.72;5045492;28;20091;-76
2021/08/03 04:43:19;;;;;;;11.15;2.97;;;;;;;20.80;62.89;98416.25;5047765;28;20396;-76
2021/08/03 04:45:45;;;;;;;13.25;2.97;;;;;;;20.82;62.99;98405.56;5052990;28;20521;-76
2021/08/03 04:48:13;;;;;;;10.98;2.80;;;;;;;21.03;62.49;98418.09;5043444;28;20543;-76
2021/08/03 04:50:40;;;;;;;9.80;3.00;;;;;;;21.08;62.50;98422.53;5039554;28;20528;-76
2021/08/03 04:53:06;;;;;;;6.93;2.55;;;;;;;20.86;62.82;98418.69;5040108;28;20063;-76
2021/08/03 04:55:33;;;;;;;15.53;3.13;;;;;;;20.84;63.01;98419.09;5048239;28;20042;-76
2021/08/03 04:57:59;;;;;;;10.68;2.65;;;;;;;20.85;62.89;98417.91;5044118;28;20045;-76
2021/08/03 05:00:26;;;;;;;11.43;3.10;;;;;;;20.74;63.10;98436.38;5059201;28;20441;-76
2021/08/03 05:02:52;;;;;;;12.52;2.70;;;;;;;20.77;63.34;98424.50;5048077;28;20144;-76
2021/08/03 05:05:18;;;;;;;11.48;2.70;;;;;;;20.73;62.85;98424.44;5047880;28;20140;-76
2021/08/03 05:07:57;;;;;;;11.00;2.72;;;;;;;20.89;62.57;98418.75;5044487;28;20053;-77
2021/08/03 05:10:23;;;;;;;12.88;2.97;;;;;;;21.05;62.38;98420.50;5036586;28;20041;-76
2021/08/03 05:12:50;;;;;;;11.45;2.60;;;;;;;21.16;61.72;98427.00;5036842;28;20073;-77
2021/08/03 05:15:16;;;;;;;6.35;2.30;;;;;;;21.15;61.49;98422.63;5048487;28;20049;-76
2021/08/03 05:17:44;;;;;;;7.83;2.57;;;;;;;21.16;61.00;98417.84;5044762;28;20045;-76
2021/08/03 05:20:11;;;;;;;5.97;2.47;;;;;;;21.16;60.85;98420.63;5023924;28;20420;-76
2021/08/03 05:22:37;;;;;;;10.23;2.60;;;;;;;21.39;60.87;98440.75;5034776;28;20172;-76
2021/08/03 05:25:04;;;;;;;15.43;2.90;;;;;;;21.49;60.25;98444.81;5046402;28;20118;-76
2021/08/03 05:27:30;;;;;;;20.10;3.15;;;;;;;21.60;59.87;98441.31;5038511;28;20037;-76
2021/08/03 05:29:56;;;;;;;9.63;3.00;;;;;;;21.67;59.60;98445.00;5046558;28;20525;-76
2021/08/03 05:32:22;;;;;;;11.60;2.90;;;;;;;21.69;59.30;98439.06;5016841;28;20524;-77
2021/08/03 05:34:50;;;;;;;15.37;2.70;;;;;;;21.78;58.77;98449.88;5048662;28;20069;-76
2021/08/03 05:37:16;;;;;;;8.70;2.40;;;;;;;21.77;58.96;98442.72;5032137;28;20072;-75
2021/08/03 05:39:42;;;;;;;6.88;2.58;;;;;;;21.80;58.26;98436.38;5057358;28;20049;-75
2021/08/03 05:42:08;;;;;;;13.07;3.80;;;;;;;21.82;58.51;98450.69;5045954;28;20037;-75
2021/08/03 05:44:34;;;;;;;7.95;2.40;;;;;;;21.81;58.53;98435.19;5059619;28;20056;-75
2021/08/03 05:47:01;;;;;;;10.40;2.60;;;;;;;21.91;58.44;98442.03;5042566;28;20144;-74
2021/08/03 05:49:27;;;;;;;7.97;2.40;;;;;;;21.91;58.13;98433.69;5040435;28;20041;-75
2021/08/03 05:51:55;;;;;;;7.38;2.03;;;;;;;21.85;58.27;98433.22;5037299;28;20544;-75
2021/08/03 05:54:21;;;;;;;11.07;2.10;;;;;;;21.86;58.21;98448.78;5045674;28;20053;-74
2021/08/03 05:56:47;;;;;;;15.50;5.55;;;;;;;21.85;58.35;98438.78;5048792;28;20147;-74
2021/08/03 05:59:13;;;;;;;13.70;2.72;;;;;;;21.98;57.97;98428.19;5032424;28;20047;-75
2021/08/03 06:01:39;;;;;;;13.98;3.85;;;;;;;22.04;57.75;98437.75;5042183;28;20049;-75
2021/08/03 06:04:06;;;;;;;9.98;2.58;;;;;;;22.04;57.62;98443.34;5049475;28;20045;-76
2021/08/03 06:06:38;;;;;;;7.80;2.20;;;;;;;22.02;57.76;98447.69;5044452;28;20037;-76
2021/08/03 06:09:08;;;;;;;14.40;2.35;;;;;;;21.98;57.37;98460.75;5052751;28;20080;-76
2021/08/03 06:11:36;;;;;;;10.73;2.03;;;;;;;21.84;57.95;98465.00;5065631;28;20096;-75
2021/08/03 06:14:09;;;;;;;11.30;2.25;;;;;;;21.90;57.86;98462.69;5093447;28;20045;-76
2021/08/03 06:16:36;;;;;;;9.63;2.35;;;;;;;21.99;57.62;98467.94;5066366;28;20041;-75
2021/08/03 06:19:05;;;;;;;11.70;2.35;;;;;;;22.07;57.17;98480.72;5074651;28;20021;-75
2021/08/03 06:21:31;;;;;;;10.52;1.90;;;;;;;22.07;56.85;98486.28;5072591;28;20068;-74
2021/08/03 06:23:58;;;;;;;14.97;2.70;;;;;;;22.16;56.61;98489.53;5068637;28;20041;-74
2021/08/03 06:26:26;;;;;;;12.55;2.58;;;;;;;22.11;56.68;98487.13;5059363;28;20046;-74
2021/08/03 06:28:54;;;;;;;9.00;2.10;;;;;;;21.80;57.30;98508.69;5052844;28;20085;-75
2021/08/03 06:31:20;;;;;;;5.50;1.95;;;;;;;21.68;57.40;98507.78;5047463;28;20081;-75
2021/08/03 06:33:47;;;;;;;11.20;2.28;;;;;;;21.75;57.36;98495.16;5050463;28;20044;-76
2021/08/03 06:36:14;;;;;;;12.10;2.75;;;;;;;21.87;57.10;98503.22;5033641;28;20045;-74
2021/08/03 06:38:40;;;;;;;13.20;2.88;;;;;;;21.81;57.46;98515.84;5055065;28;20048;-75
2021/08/03 06:41:10;;;;;;;10.13;2.17;;;;;;;21.75;57.50;98506.28;5051943;28;20579;-75
2021/08/03 06:43:44;;;;;;;10.45;2.35;;;;;;;21.64;57.83;98512.47;5037878;28;20057;-75
2021/08/03 06:46:11;;;;;;;10.35;2.65;;;;;;;21.72;57.95;98516.16;5051514;28;20076;-75
2021/08/03 06:48:47;;;;;;;14.88;2.67;;;;;;;21.80;57.26;98522.59;5066016;28;20138;-75
2021/08/03 06:51:15;;;;;;;11.07;2.85;;;;;;;21.81;57.10;98521.41;5051005;28;20072;-72
2021/08/03 06:53:46;;;;;;;10.98;2.33;;;;;;;21.88;57.20;98529.03;5039693;28;20057;-71
2021/08/03 06:56:19;;;;;;;12.05;2.60;;;;;;;22.04;56.64;98526.81;5053496;28;20126;-73
2021/08/03 06:58:55;;;;;;;10.60;2.45;;;;;;;22.14;56.33;98522.53;5052552;28;20052;-72
2021/08/03 07:01:28;;;;;;;8.90;2.40;;;;;;;22.19;55.25;98530.53;5047442;28;20053;-71
2021/08/03 07:03:59;;;;;;;9.73;1.90;;;;;;;22.12;55.06;98521.31;5054640;28;20049;-72
2021/08/03 07:06:29;;;;;;;10.75;3.47;;;;;;;22.11;54.71;98520.50;5047908;28;20136;-72
2021/08/03 07:08:56;;;;;;;9.07;2.20;;;;;;;22.14;54.58;98525.31;5044790;28;20049;-72
2021/08/03 07:11:23;;;;;;;8.43;2.25;;;;;;;22.15;53.92;98526.13;5041333;28;20166;-71
2021/08/03 07:13:51;;;;;;;6.72;2.08;;;;;;;21.99;54.77;98531.91;5031891;28;20052;-71
2021/08/03 07:16:19;;;;;;;8.32;2.25;;;;;;;21.87;55.31;98539.38;5047761;28;20075;-75
2021/08/03 07:18:45;;;;;;;;;;;;;;;21.51;56.83;98547.28;5047376;28;20053;-75
2021/08/03 07:21:12;;;;;;;5.97;2.00;;;;;;;21.48;56.79;98553.59;5043125;28;19947;-74
2021/08/03 07:23:42;;;;;;;7.85;2.22;;;;;;;21.51;56.95;98541.72;5049701;28;20047;-74
2021/08/03 07:26:08;;;;;;;6.30;2.10;;;;;;;21.62;57.12;98539.88;5048711;28;20041;-70
2021/08/03 07:28:35;;;;;;;7.40;2.10;;;;;;;21.79;56.56;98548.81;5054121;28;20056;-70
2021/08/03 07:31:02;;;;;;;9.05;2.10;;;;;;;21.74;56.71;98549.19;5042588;28;20049;-71
2021/08/03 07:33:28;;;;;;;8.60;3.22;;;;;;;21.93;56.50;98542.59;5040283;28;20045;-72
2021/08/03 07:35:54;;;;;;;10.10;2.40;;;;;;;22.02;55.97;98533.97;5054010;28;20041;-72
2021/08/03 07:38:20;;;;;;;8.00;2.22;;;;;;;22.16;55.57;98555.53;5048438;28;20047;-72
2021/08/03 07:40:46;;;;;;;5.63;2.03;;;;;;;22.13;55.80;98545.97;5048242;28;20066;-72
2021/08/03 07:43:13;;;;;;;9.75;2.25;;;;;;;22.09;55.82;98545.16;5036424;28;20045;-72
2021/08/03 07:45:39;;;;;;;9.50;1.83;;;;;;;22.14;55.17;98539.22;5055503;28;20037;-72
2021/08/03 07:48:08;;;;;;;8.30;2.60;;;;;;;22.18;55.10;98536.47;5045152;28;20617;-72
2021/08/03 07:50:35;;;;;;;8.90;1.90;;;;;;;22.16;54.98;98547.19;5047784;28;20037;-72
2021/08/03 07:53:04;;;;;;;9.05;2.25;;;;;;;22.17;54.90;98534.88;5042823;28;20068;-71
2021/08/03 07:55:31;;;;;;;9.05;2.30;;;;;;;22.29;54.67;98544.91;5043378;28;20046;-67
2021/08/03 07:57:57;;;;;;;8.83;2.20;;;;;;;22.30;54.67;98549.28;5027550;28;20044;-68
2021/08/03 08:00:23;;;;;;;5.22;1.70;;;;;;;22.29;54.36;98569.97;5056735;28;20372;-71
2021/08/03 08:02:49;;;;;;;5.82;1.70;;;;;;;22.17;54.24;98552.38;5019010;28;20413;-74
2021/08/03 08:05:17;;;;;;;10.98;2.10;;;;;;;22.25;54.17;98542.13;5065372;28;20055;-73
2021/08/03 08:07:43;;;;;;;6.35;2.03;;;;;;;22.24;53.96;98549.66;5052757;28;20041;-74
2021/08/03 08:10:10;;;;;;;11.05;2.13;;;;;;;22.29;53.73;98544.91;5051980;28;20044;-74
2021/08/03 08:12:36;;;;;;;6.85;1.70;;;;;;;22.32;53.57;98544.94;5051989;28;20143;-74
2021/08/03 08:15:04;;;;;;;12.10;2.92;;;;;;;22.41;53.03;98543.84;5052570;28;20049;-74
2021/08/03 08:17:30;;;;;;;;;;;;;;;22.36;52.54;98575.59;5014919;28;20108;-74
2021/08/03 08:19:56;;;;;;;5.83;1.60;;;;;;;22.00;52.54;98555.78;5031032;28;20384;-75
2021/08/03 08:22:24;;;;;;;6.75;1.90;;;;;;;22.10;52.54;98577.34;5026450;28;20044;-75
2021/08/03 08:24:50;;;;;;;8.20;2.10;;;;;;;22.15;52.48;98549.16;5051391;28;20501;-75
2021/08/03 08:27:16;;;;;;;9.43;2.10;;;;;;;22.19;52.27;98550.03;5051646;28;20049;-74
2021/08/03 08:29:42;;;;;;;6.53;1.55;;;;;;;22.22;52.05;98548.44;5047721;28;20127;-75
2021/08/03 08:32:09;;;;;;;5.55;1.60;;;;;;;22.21;51.82;98553.22;5033551;28;20548;-74
2021/08/03 08:34:37;;;;;;;3.60;1.40;;;;;;;22.32;51.73;98563.63;5048257;28;22551;-74
2021/08/03 08:37:04;;;;;;;8.93;1.80;;;;;;;22.37;51.46;98549.38;5040085;28;20052;-75
2021/08/03 08:39:32;;;;;;;8.88;1.90;;;;;;;22.50;51.14;98522.84;5027751;28;20042;-73
2021/08/03 08:41:58;;;;;;;8.38;1.88;;;;;;;22.66;51.02;98541.25;5032411;28;20056;-74
2021/08/03 08:44:25;;;;;;;8.48;1.80;;;;;;;22.80;50.63;98534.97;5041983;28;20056;-74
2021/08/03 08:46:52;;;;;;;7.88;1.92;;;;;;;22.90;50.83;98534.25;5049475;28;20052;-75
2021/08/03 08:49:19;;;;;;;11.70;2.00;;;;;;;22.93;50.33;98547.41;5053843;28;20505;-75
2021/08/03 08:51:45;;;;;;;;;;;;;;;22.95;49.30;98541.44;5051229;28;20056;-72
2021/08/03 08:54:12;;;;;;;12.63;1.80;;;;;;;22.99;49.41;98541.44;5049474;28;20309;-73
2021/08/03 08:56:41;;;;;;;6.47;2.22;;;;;;;22.96;49.66;98559.75;5043871;28;20045;-73
2021/08/03 08:59:07;;;;;;;4.13;1.55;;;;;;;22.89;49.20;98568.06;5047832;28;20045;-74
2021/08/03 09:01:33;;;;;;;24.02;1.98;;;;;;;22.79;49.28;98558.44;5042237;28;20429;-76
2021/08/03 09:03:59;;;;;;;7.35;1.65;;;;;;;22.85;49.40;98545.75;5015742;28;20054;-71
2021/08/03 09:06:25;;;;;;;9.18;1.73;;;;;;;22.95;49.49;98544.22;5048290;28;20571;-71
2021/08/03 09:08:51;;;;;;;6.95;1.67;;;;;;;23.03;49.38;98567.38;5016869;28;20065;-72
2021/08/03 09:11:19;;;;;;;5.13;1.43;;;;;;;23.01;48.84;98576.09;5036682;28;20135;-72
2021/08/03 09:14:04;;;;;;;11.85;1.52;;;;;;;23.20;48.68;98571.41;5021128;28;20060;-71
2021/08/03 09:16:43;;;;;;;17.30;2.22;;;;;;;23.40;48.66;98562.78;5047207;28;20049;-72
2021/08/03 09:19:26;;;;;;;6.72;1.70;;;;;;;23.48;47.96;98578.34;5040102;28;20425;-72
2021/08/03 09:22:08;;;;;;;8.15;1.75;;;;;;;23.50;47.66;98573.19;5051011;28;20053;-72
2021/08/03 09:24:35;;;;;;;4.32;1.60;;;;;;;23.45;47.77;98568.78;5037110;28;20042;-73
2021/08/03 09:27:02;;;;;;;11.43;2.40;;;;;;;23.40;47.72;98602.63;5030411;28;20045;-72
2021/08/03 09:29:42;;;;;;;8.80;1.85;;;;;;;23.12;48.45;98589.31;5035023;28;20513;-72
2021/08/03 09:32:10;;;;;;;7.35;1.60;;;;;;;22.76;48.48;98603.81;5033433;28;20048;-69
2021/08/03 09:34:37;;;;;;;5.50;1.55;;;;;;;22.76;48.68;98604.59;5032270;28;20130;-69
2021/08/03 09:37:03;;;;;;;4.20;1.50;;;;;;;22.88;48.21;98603.50;5046159;28;20069;-71
2021/08/03 09:39:50;;;;;;;7.90;2.10;;;;;;;23.11;48.33;98587.72;5038989;28;20296;-71
2021/08/03 09:42:17;;;;;;;;;;;;;;;23.46;47.76;98586.31;5047722;28;20304;-71
2021/08/03 09:44:48;;;;;;;6.07;1.60;;;;;;;23.62;46.44;98597.94;5044570;28;20317;-69
2021/08/03 09:47:14;;;;;;;6.78;1.70;;;;;;;23.58;46.60;98593.53;5038673;28;20087;-69
2021/08/03 09:49:46;;;;;;;5.77;1.70;;;;;;;23.57;46.20;98592.75;5040303;28;20049;-70
2021/08/03 09:52:13;;;;;;;5.18;1.50;;;;;;;23.68;46.12;98592.78;5046374;28;20057;-68
2021/08/03 09:54:40;;;;;;;7.18;1.95;;;;;;;23.81;45.86;98592.44;5043520;28;20084;-70
2021/08/03 09:57:19;;;;;;;9.25;1.70;;;;;;;24.06;45.25;98598.88;5047297;28;20075;-68
2021/08/03 09:59:47;;;;;;;7.45;1.75;;;;;;;23.87;45.56;98596.41;5026526;28;20041;-71
2021/08/03 10:02:17;;;;;;;9.45;2.10;;;;;;;23.89;45.72;98586.47;5023424;28;20033;-70
2021/08/03 10:04:45;;;;;;;11.93;2.35;;;;;;;24.07;46.00;98580.16;5036013;28;20540;-69
2021/08/03 10:07:12;;;;;;;5.57;2.08;;;;;;;24.11;45.29;98594.09;5039920;28;20041;-71
2021/08/03 10:09:38;;;;;;;11.65;1.95;;;;;;;24.30;45.45;98609.69;5040262;28;20414;-72
2021/08/03 10:12:05;;;;;;;5.50;1.90;;;;;;;24.17;44.63;98598.91;5049035;28;20045;-71
2021/08/03 10:14:31;;;;;;;8.55;2.38;;;;;;;24.14;44.35;98588.53;5054632;28;20135;-71
2021/08/03 10:16:59;;;;;;;9.23;1.83;;;;;;;24.19;44.14;98587.34;5033495;28;20078;-70
2021/08/03 10:19:26;;;;;;;10.43;2.03;;;;;;;24.43;44.34;98580.19;5042554;28;20051;-73
2021/08/03 10:22:02;;;;;;;9.23;2.65;;;;;;;24.53;44.76;98569.41;5041639;28;20045;-72
2021/08/03 10:24:31;;;;;;;4.97;2.00;;;;;;;24.65;44.53;98588.53;5032319;28;20464;-72
2021/08/03 10:27:07;;;;;;;7.68;2.13;;;;;;;24.67;44.80;98597.34;5035153;28;20128;-73
2021/08/03 10:29:39;;;;;;;8.23;2.83;;;;;;;24.67;45.49;98602.13;5049874;28;20051;-86
2021/08/03 10:32:49;;;;;;;7.47;2.45;;;;;;;24.64;45.22;98610.13;5019061;28;20071;-84
2021/08/03 10:35:16;;;;;;;9.82;2.13;;;;;;;24.66;44.37;98608.91;5034190;28;20045;-72
2021/08/03 10:38:27;;;;;;;8.50;2.22;;;;;;;24.72;42.53;98604.50;5048040;28;20138;-70
2021/08/03 10:41:16;;;;;;;7.97;2.17;;;;;;;24.80;42.25;98611.72;5039890;28;20418;-68
2021/08/03 10:43:51;;;;;;;6.63;2.08;;;;;;;24.68;42.36;98601.75;5061206;28;20082;-71
2021/08/03 10:46:35;;;;;;;7.70;2.20;;;;;;;24.50;42.33;98604.53;5044995;28;20128;-71
2021/08/03 10:49:03;;;;;;;6.55;2.30;;;;;;;24.53;42.94;98605.72;5042775;28;20041;-81
2021/08/03 10:51:44;;;;;;;8.63;2.55;;;;;;;24.24;42.52;98600.91;5033343;28;20103;-72
2021/08/03 10:54:17;;;;;;;12.35;2.30;;;;;;;24.24;42.23;98609.28;5033889;28;20292;-72
2021/08/03 10:57:17;;;;;;;12.25;2.33;;;;;;;24.17;42.80;98607.28;5033272;28;20069;-72
2021/08/03 10:59:44;;;;;;;9.00;2.72;;;;;;;24.25;43.25;98608.09;5031940;28;20049;-72
2021/08/03 11:02:44;;;;;;;8.20;2.50;;;;;;;24.32;42.30;98604.50;5033201;28;20046;-72
2021/08/03 11:08:40;;;;;;;7.03;2.20;;;;;;;24.60;41.58;98614.91;5135862;27;1349919;-71
2021/08/03 11:11:11;;;;;;;7.07;2.78;;;;;;;24.52;41.39;98609.72;5153255;27;20046;-71
2021/08/03 11:13:43;;;;;;;11.57;2.60;;;;;;;24.56;41.50;98607.72;5147892;27;20050;-71
2021/08/03 11:16:32;;;;;;;10.45;2.78;;;;;;;24.35;41.66;98615.69;5171408;27;20398;-72
2021/08/03 11:18:59;;;;;;;7.07;2.67;;;;;;;24.19;42.15;98606.88;5145792;27;20406;-71
2021/08/03 11:21:27;;;;;;;12.50;3.10;;;;;;;24.20;42.31;98619.66;5148754;27;20401;-72
2021/08/03 11:24:05;;;;;;;8.85;2.70;;;;;;;24.11;42.44;98617.25;5162106;27;20050;-72
2021/08/03 11:26:39;;;;;;;14.98;3.22;;;;;;;24.21;42.85;98619.28;5171572;27;20046;-72
2021/08/03 11:29:11;;;;;;;12.32;2.83;;;;;;;24.40;42.61;98622.88;5152106;27;20070;-72
2021/08/03 11:31:43;;;;;;;12.82;2.72;;;;;;;24.76;42.01;98622.13;5162244;27;20067;-72
2021/08/03 11:34:09;;;;;;;13.13;2.75;;;;;;;24.91;41.55;98620.91;5159643;27;20083;-72
2021/08/03 11:36:36;;;;;;;12.75;2.85;;;;;;;25.26;41.46;98612.84;5151923;27;20103;-72
2021/08/03 11:39:19;;;;;;;10.18;2.97;;;;;;;25.19;41.81;98624.84;5145075;27;20092;-72
2021/08/03 11:41:47;;;;;;;12.27;3.10;;;;;;;25.13;41.36;98620.06;5164889;27;20051;-71
2021/08/03 11:44:15;;;;;;;16.70;3.10;;;;;;;25.35;41.32;98613.22;5152005;27;20042;-72